This is the latest recevied weather packets stored in our database for station/object DL9NEE-10. If no packets are shown the sender has not sent any weather packets the latest 10 day(s).
| Time | Temp. | Humidity | Pressure | Rain* | Wind** | Luminosity | Snow |
|---|---|---|---|---|---|---|---|
| 1777512874 | 9.44° C | 35% | 1029 hPa | - | - | - | - |
| 1777511974 | 9.44° C | 35% | 1029 hPa | - | - | - | - |
| 1777511074 | 10° C | 35% | 1029 hPa | - | - | - | - |
| 1777510174 | 10° C | 34% | 1028.9 hPa | - | - | - | - |
| 1777509274 | 10° C | 34% | 1029 hPa | - | - | - | - |
| 1777508374 | 10.56° C | 34% | 1028.8 hPa | - | - | - | - |
| 1777507473 | 10.56° C | 34% | 1028.7 hPa | - | - | - | - |
| 1777501173 | 12.22° C | 32% | 1027.8 hPa | - | - | - | - |
| 1777497572 | 13.33° C | 31% | 1027.4 hPa | - | - | - | - |
| 1777491271 | 16.11° C | 29% | 1026.4 hPa | - | - | - | - |
| 1777490371 | 16.67° C | 29% | 1026 hPa | - | - | - | - |
| 1777487671 | 18.33° C | 28% | 1025.1 hPa | - | - | - | - |
| 1777482270 | 21.11° C | 27% | 1023.7 hPa | - | - | - | - |
| 1777481370 | 22.22° C | 26% | 1023.7 hPa | - | - | - | - |
| 1777480469 | 23.33° C | 26% | 1023.6 hPa | - | - | - | - |
| 1777468768 | 28.33° C | 25% | 1023.7 hPa | - | - | - | - |
| 1777466066 | 26.67° C | 24% | 1023.7 hPa | - | - | - | - |
| 1777465166 | 26.67° C | 25% | 1023.7 hPa | - | - | - | - |
| 1777463366 | 27.22° C | 24% | 1024 hPa | - | - | - | - |
| 1777462466 | 29.44° C | 23% | 1023.9 hPa | - | - | - | - |
| 1777461566 | 48.89° C | 19% | 1024.3 hPa | - | - | - | - |
| 1777460666 | 23.33° C | 29% | 1024.1 hPa | - | - | - | - |
| 1777458865 | 20.56° C | 31% | 1024.3 hPa | - | - | - | - |
| 1777457965 | 19.44° C | 32% | 1024.3 hPa | - | - | - | - |
| 1777457065 | 18.89° C | 33% | 1024.5 hPa | - | - | - | - |
* Rain since midnight (hover to see other rain measurements)
** Current wind speed in m/s (hover to see current wind gust speed)